Time;durP1;ratioP1;P1;durP2;ratioP2;P2;SDS_P1;SDS_P2;PMS_P1;PMS_P2;Temp;Humidity;BMP_temperature;BMP_pressure;BME280_temperature;BME280_humidity;BME280_pressure;Samples;Min_cycle;Max_cycle;Signal;HPM_P1;HPM_P2
2022/04/18 00:00:05;;;;;;;5.25;2.70;;;;;;;8.12;39.46;98329.25;10022316;29;20513;-79
2022/04/18 00:05:39;;;;;;;3.53;2.15;;;;;;;8.18;39.26;98329.03;10029842;29;20060;-78
2022/04/18 00:11:01;;;;;;;4.47;2.28;;;;;;;8.15;39.24;98317.00;10022615;29;20053;-80
2022/04/18 00:16:21;;;;;;;5.28;2.92;;;;;;;8.11;39.30;98305.53;10012170;29;20041;-77
2022/04/18 00:21:42;;;;;;;5.95;2.13;;;;;;;8.07;39.48;98305.16;10007869;29;20117;-79
2022/04/18 00:27:04;;;;;;;4.95;2.38;;;;;;;8.02;39.70;98297.78;10003265;29;20046;-78
2022/04/18 00:32:25;;;;;;;4.60;1.95;;;;;;;8.03;39.99;98299.28;10008298;29;20110;-77
2022/04/18 00:37:47;;;;;;;3.90;1.98;;;;;;;8.02;40.15;98284.63;10008194;29;20057;-78
2022/04/18 00:43:08;;;;;;;6.97;2.30;;;;;;;7.98;40.29;98278.72;9995295;29;20053;-78
2022/04/18 00:48:29;;;;;;;5.82;2.20;;;;;;;7.97;40.22;98282.06;9994910;29;20049;-78
2022/04/18 00:53:52;;;;;;;4.20;1.98;;;;;;;7.93;40.46;98270.59;9994563;29;20058;-78
2022/04/18 00:59:13;;;;;;;5.20;2.20;;;;;;;7.90;40.38;98263.38;9994832;29;20054;-78
2022/04/18 01:04:35;;;;;;;3.95;2.42;;;;;;;7.91;40.62;98262.84;9994895;29;20110;-78
2022/04/18 01:09:56;;;;;;;5.07;2.50;;;;;;;7.95;40.53;98246.50;9994473;29;20624;-77
2022/04/18 01:15:17;;;;;;;3.67;1.95;;;;;;;7.96;40.69;98244.44;9998153;29;20516;-79
2022/04/18 01:20:58;;;;;;;4.70;2.60;;;;;;;8.02;40.79;98233.84;10007229;29;20054;-78
2022/04/18 01:32:18;;;;;;;6.53;2.38;;;;;;;8.26;40.91;98224.75;10006071;29;20046;-78
2022/04/18 01:37:39;;;;;;;4.72;1.95;;;;;;;8.41;40.55;98214.88;10015302;29;20076;-78
2022/04/18 01:43:04;;;;;;;4.18;2.20;;;;;;;8.49;40.57;98218.28;10014879;29;20486;-78
2022/04/18 01:48:26;;;;;;;4.25;2.20;;;;;;;8.63;40.40;98196.47;10001621;29;20425;-78
2022/04/18 01:53:50;;;;;;;4.47;2.22;;;;;;;8.75;40.58;98197.47;10001129;29;20050;-78
2022/04/18 01:59:13;;;;;;;3.55;1.92;;;;;;;8.81;40.66;98192.41;10002242;29;20062;-78
2022/04/18 02:04:35;;;;;;;3.85;2.08;;;;;;;8.92;40.55;98193.97;10001101;29;20113;-78
2022/04/18 02:09:59;;;;;;;5.50;2.40;;;;;;;8.94;40.24;98180.19;10001856;29;20065;-78
2022/04/18 02:15:21;;;;;;;4.47;1.77;;;;;;;8.96;40.37;98174.78;10000984;29;20048;-78
2022/04/18 02:20:50;;;;;;;6.68;2.03;;;;;;;9.01;40.56;98165.47;10002705;29;20079;-78
2022/04/18 02:26:11;;;;;;;4.30;1.95;;;;;;;9.03;40.21;98168.41;10000053;29;20050;-78
2022/04/18 02:32:47;;;;;;;5.70;1.85;;;;;;;9.07;40.33;98163.16;10000926;29;20046;-78
2022/04/18 02:37:15;;;;;;;3.38;1.88;;;;;;;9.09;40.28;98154.97;10005299;29;20053;-78
2022/04/18 02:42:37;;;;;;;3.17;1.70;;;;;;;9.13;39.94;98149.72;9999378;29;20045;-78
2022/04/18 02:47:57;;;;;;;4.25;1.80;;;;;;;9.15;39.92;98141.50;10011983;29;20515;-78
2022/04/18 02:53:19;;;;;;;3.60;1.85;;;;;;;9.11;39.86;98139.16;9998496;29;20156;-78
2022/04/18 02:58:45;;;;;;;2.45;1.63;;;;;;;9.11;40.14;98121.72;9999751;29;20082;-78
2022/04/18 03:04:06;;;;;;;3.50;1.88;;;;;;;9.13;40.00;98128.16;9998102;29;20045;-78
2022/04/18 03:09:29;;;;;;;3.67;1.58;;;;;;;9.18;40.14;98123.66;9998427;29;20183;-78
2022/04/18 03:14:50;;;;;;;3.13;1.77;;;;;;;9.19;40.18;98116.78;9998068;29;20053;-78
2022/04/18 03:20:11;;;;;;;5.03;1.90;;;;;;;9.21;40.23;98110.63;9998071;29;20046;-78
2022/04/18 03:25:32;;;;;;;4.05;1.70;;;;;;;9.18;39.85;98112.53;10010155;29;20045;-78
2022/04/18 03:30:53;;;;;;;3.60;1.95;;;;;;;9.17;40.16;98105.50;9997398;29;20049;-78
2022/04/18 03:41:54;;;;;;;4.45;1.90;;;;;;;9.12;40.27;98103.69;10015167;29;20478;-78
2022/04/18 03:47:15;;;;;;;5.28;2.03;;;;;;;9.12;40.29;98098.13;10018589;29;20473;-78
2022/04/18 03:52:37;;;;;;;4.38;1.80;;;;;;;9.11;40.45;98094.59;10032727;29;20049;-79
2022/04/18 03:58:09;;;;;;;4.18;2.35;;;;;;;9.11;40.21;98093.88;10028608;29;20565;-77
2022/04/18 04:03:30;;;;;;;3.38;2.03;;;;;;;9.06;40.29;98090.00;10017468;29;20045;-80
2022/04/18 04:08:51;;;;;;;8.63;2.03;;;;;;;9.07;40.30;98085.94;10013132;29;20064;-77
2022/04/18 04:14:20;;;;;;;4.47;2.10;;;;;;;9.07;40.34;98085.19;10014299;29;20500;-77
2022/04/18 04:19:44;;;;;;;3.33;1.77;;;;;;;9.10;40.49;98089.59;10011562;29;20064;-78
2022/04/18 04:25:18;;;;;;;5.40;2.30;;;;;;;9.08;40.65;98087.41;10017134;29;20038;-78
2022/04/18 04:30:39;;;;;;;7.15;1.98;;;;;;;9.08;40.55;98092.25;10013631;29;20049;-78
2022/04/18 04:36:01;;;;;;;3.58;1.88;;;;;;;9.10;40.64;98084.03;10023403;29;20042;-78
2022/04/18 04:41:21;;;;;;;3.22;2.05;;;;;;;9.12;40.69;98076.56;10010538;29;20120;-79
2022/04/18 04:46:48;;;;;;;4.68;2.35;;;;;;;9.16;40.63;98073.34;10017771;29;20483;-79
2022/04/18 04:52:12;;;;;;;4.00;2.50;;;;;;;9.17;40.74;98083.22;10016181;29;20046;-79
2022/04/18 04:57:33;;;;;;;4.10;2.53;;;;;;;9.19;40.66;98083.34;10008124;29;20042;-78
2022/04/18 05:03:17;;;;;;;4.33;2.57;;;;;;;9.25;40.74;98074.72;10019639;29;20053;-78
2022/04/18 05:08:38;;;;;;;5.88;2.80;;;;;;;9.26;40.90;98068.56;10012319;29;20050;-78
2022/04/18 05:14:01;;;;;;;5.93;2.40;;;;;;;9.26;40.75;98065.78;10017630;29;20042;-78
2022/04/18 05:19:36;;;;;;;5.00;2.60;;;;;;;9.32;40.79;98069.06;10016127;29;20046;-78
2022/04/18 05:25:11;;;;;;;4.50;2.30;;;;;;;9.41;41.05;98071.16;10012924;29;20121;-78
2022/04/18 05:30:37;;;;;;;4.30;2.55;;;;;;;9.55;40.77;98068.72;10029017;29;20042;-78
2022/04/18 05:35:58;;;;;;;4.70;2.65;;;;;;;9.68;41.20;98073.16;10031284;29;20056;-79
2022/04/18 05:41:25;;;;;;;5.13;2.80;;;;;;;9.84;40.74;98073.66;10061964;29;20052;-78
2022/04/18 05:46:45;;;;;;;4.28;2.78;;;;;;;9.92;40.93;98075.00;10034636;29;20049;-78
2022/04/18 05:52:07;;;;;;;5.40;2.90;;;;;;;10.05;41.02;98076.66;10046891;29;20053;-79
2022/04/18 05:57:29;;;;;;;7.32;3.25;;;;;;;10.20;40.66;98081.22;10060628;29;20046;-78
2022/04/18 06:02:55;;;;;;;5.22;2.95;;;;;;;10.31;40.73;98086.25;10043829;29;20049;-78
2022/04/18 06:08:16;;;;;;;4.43;2.22;;;;;;;10.48;40.81;98083.34;10044193;29;20113;-79
2022/04/18 06:13:54;;;;;;;5.00;2.72;;;;;;;10.70;40.44;98080.69;10050559;29;20116;-78
2022/04/18 06:19:17;;;;;;;5.15;3.10;;;;;;;10.93;40.54;98085.84;10057621;29;20082;-79
2022/04/18 06:24:38;;;;;;;4.38;2.88;;;;;;;11.12;39.99;98080.94;10055128;29;20400;-78
2022/04/18 06:30:07;;;;;;;6.38;3.47;;;;;;;11.16;39.86;98074.91;10040646;29;20050;-77
2022/04/18 06:35:48;;;;;;;4.65;2.90;;;;;;;11.85;40.65;98081.75;10068627;29;20458;-77
2022/04/18 06:41:09;;;;;;;10.50;3.88;;;;;;;15.46;37.92;98079.81;10045946;29;20048;-78
2022/04/18 06:46:30;;;;;;;4.47;2.90;;;;;;;15.08;36.82;98084.06;10041977;29;20511;-77
2022/04/18 06:51:57;;;;;;;4.53;2.90;;;;;;;16.72;36.46;98075.03;10038544;29;20057;-78
2022/04/18 06:57:37;;;;;;;4.07;2.92;;;;;;;16.53;34.75;98078.28;10051071;29;20056;-78
2022/04/18 07:03:04;;;;;;;4.57;3.05;;;;;;;15.46;35.15;98077.00;10025506;29;20049;-77
2022/04/18 07:08:24;;;;;;;6.57;3.20;;;;;;;14.78;35.77;98077.50;10035956;29;20458;-77
2022/04/18 07:13:49;;;;;;;5.65;2.90;;;;;;;14.57;35.58;98081.22;10037028;29;20061;-78
2022/04/18 07:19:10;;;;;;;4.93;3.35;;;;;;;14.48;35.78;98077.22;10049072;29;20469;-78
2022/04/18 07:24:30;;;;;;;6.25;3.50;;;;;;;14.49;35.55;98070.25;10048685;29;20052;-77
2022/04/18 07:29:52;;;;;;;5.38;2.97;;;;;;;14.45;35.61;98070.00;10036870;29;20485;-78
2022/04/18 07:35:13;;;;;;;5.40;2.90;;;;;;;14.75;35.03;98075.91;10049144;29;20060;-78
2022/04/18 07:40:48;;;;;;;6.30;2.95;;;;;;;14.99;35.02;98071.66;10039561;29;20497;-78
2022/04/18 07:46:15;;;;;;;4.13;3.40;;;;;;;15.65;34.40;98068.22;10035386;29;20049;-79
2022/04/18 07:51:41;;;;;;;5.10;2.95;;;;;;;16.43;33.72;98058.81;10034151;29;20666;-81
2022/04/18 07:57:12;;;;;;;6.13;3.20;;;;;;;18.30;31.73;98061.75;10025610;29;20110;-79
2022/04/18 08:02:43;;;;;;;11.88;3.63;;;;;;;17.90;31.88;98071.31;10047184;29;20507;-79
2022/04/18 08:08:18;;;;;;;4.82;2.85;;;;;;;25.48;27.25;98065.66;10036658;29;20493;-82
2022/04/18 08:13:40;;;;;;;8.68;3.20;;;;;;;25.76;24.24;98054.63;10058569;29;20397;-81
2022/04/18 08:19:20;;;;;;;3.00;2.25;;;;;;;29.57;21.61;98059.44;10048025;29;20049;-82
2022/04/18 08:24:42;;;;;;;3.60;1.80;;;;;;;33.78;19.60;98057.63;10032259;29;20045;-83
2022/04/18 08:30:31;;;;;;;2.42;1.83;;;;;;;31.71;16.29;98044.22;10048886;29;20401;-83
2022/04/18 08:36:01;;;;;;;7.50;2.30;;;;;;;28.46;16.33;98046.53;10034635;29;20515;-83
2022/04/18 08:41:22;;;;;;;2.77;2.57;;;;;;;28.74;16.34;98046.56;10032018;29;20403;-83
2022/04/18 08:46:43;;;;;;;3.78;2.13;;;;;;;29.20;15.75;98045.13;10032265;29;20326;-84
2022/04/18 08:57:49;;;;;;;2.33;2.08;;;;;;;38.30;10.66;98026.94;10047116;29;19927;-84
2022/04/18 09:03:11;;;;;;;2.65;1.65;;;;;;;43.45;8.68;98026.28;10031722;29;20408;-85
2022/04/18 09:08:52;;;;;;;1.67;1.40;;;;;;;46.75;6.35;98019.38;10035383;29;20058;-85
2022/04/18 09:14:16;;;;;;;2.35;1.20;;;;;;;47.23;6.22;98000.22;10032501;29;20136;-85
2022/04/18 09:19:43;;;;;;;1.40;1.30;;;;;;;48.61;4.14;97993.63;10032767;29;20508;-84
2022/04/18 09:25:36;;;;;;;2.88;1.70;;;;;;;46.50;4.17;97985.78;10032239;29;20101;-85
2022/04/18 09:30:59;;;;;;;3.63;1.35;;;;;;;40.08;5.99;97984.31;10033805;29;20057;-83
2022/04/18 09:36:27;;;;;;;1.98;1.48;;;;;;;35.04;9.38;97969.28;10036594;29;20057;-85
2022/04/18 09:41:48;;;;;;;3.58;1.50;;;;;;;38.20;7.44;97962.47;10025780;29;20376;-84
2022/04/18 09:47:23;;;;;;;3.35;1.67;;;;;;;30.17;9.83;97959.91;10041077;29;20072;-83
2022/04/18 09:52:44;;;;;;;2.90;1.50;;;;;;;27.73;13.30;97949.56;10038083;29;20101;-85
2022/04/18 09:58:05;;;;;;;1.50;1.08;;;;;;;37.81;10.02;97940.69;10037253;29;20049;-84
2022/04/18 10:03:52;;;;;;;1.50;1.08;;;;;;;31.90;9.66;97946.63;10029451;29;20088;-85
2022/04/18 10:09:13;;;;;;;2.08;1.08;;;;;;;35.86;9.55;97936.44;10038478;29;20414;-86
2022/04/18 10:14:35;;;;;;;1.10;0.70;;;;;;;41.27;6.22;97938.84;10049818;29;20125;-85
2022/04/18 10:20:35;;;;;;;2.15;0.40;;;;;;;43.00;4.38;97935.00;10037561;29;20055;-86
2022/04/18 10:26:35;;;;;;;1.27;0.40;;;;;;;42.44;5.16;97933.84;10049388;29;20046;-85
2022/04/18 10:31:57;;;;;;;0.68;0.40;;;;;;;44.98;4.00;97932.53;10047490;29;20061;-84
2022/04/18 10:37:29;;;;;;;2.95;0.40;;;;;;;44.01;3.93;97918.41;10017435;29;20080;-85
2022/04/18 10:42:51;;;;;;;0.68;0.30;;;;;;;42.76;3.86;97913.66;10015798;29;20056;-84
2022/04/18 10:48:13;;;;;;;2.17;0.43;;;;;;;44.04;3.80;97913.81;10016749;29;20042;-84
2022/04/18 10:53:34;;;;;;;1.08;0.43;;;;;;;45.02;3.46;97899.16;10028110;29;20051;-84
2022/04/18 10:59:01;;;;;;;2.97;0.60;;;;;;;43.41;3.02;97889.84;10037030;29;20045;-85
2022/04/18 11:04:25;;;;;;;1.23;0.63;;;;;;;36.28;5.17;97896.63;10042732;29;20049;-83
2022/04/18 11:09:49;;;;;;;2.78;0.57;;;;;;;33.15;6.77;97887.47;10023102;29;20497;-83
2022/04/18 11:15:15;;;;;;;2.38;0.60;;;;;;;28.13;9.85;97888.66;10012100;29;20053;-83
2022/04/18 11:20:36;;;;;;;1.15;0.70;;;;;;;26.69;10.68;97876.69;10011384;29;20050;-83
2022/04/18 11:25:57;;;;;;;1.50;0.73;;;;;;;24.89;12.20;97857.09;10047327;29;20054;-84
2022/04/18 11:31:19;;;;;;;;;;;;;;;24.37;13.83;97863.50;10058580;29;20544;-83
2022/04/18 11:36:40;;;;;;;1.17;0.70;;;;;;;22.84;15.13;97862.84;10046990;29;19924;-84
2022/04/18 11:42:05;;;;;;;2.55;0.80;;;;;;;22.09;15.71;97866.81;10034058;29;20045;-83
2022/04/18 11:47:28;;;;;;;1.83;0.90;;;;;;;23.52;15.78;97862.03;10033246;29;20074;-84
2022/04/18 11:52:49;;;;;;;;;;;;;;;23.46;15.80;97851.25;10033645;29;20049;-83
2022/04/18 11:58:10;;;;;;;3.53;0.77;;;;;;;22.46;16.26;97849.19;10058217;29;20328;-84
2022/04/18 12:09:11;;;;;;;2.40;1.02;;;;;;;22.45;17.49;97835.66;10047971;29;20061;-84
2022/04/18 12:14:32;;;;;;;1.57;0.80;;;;;;;22.41;18.00;97835.56;10045969;29;20397;-84
2022/04/18 12:19:53;;;;;;;2.03;0.90;;;;;;;21.80;17.91;97826.28;10058408;29;20061;-84
2022/04/18 12:25:22;;;;;;;1.95;0.93;;;;;;;21.45;18.08;97835.34;10058237;29;20403;-84
2022/04/18 12:30:43;;;;;;;3.20;1.05;;;;;;;21.04;18.35;97828.56;10032816;29;20075;-85
2022/04/18 12:36:04;;;;;;;2.63;1.45;;;;;;;20.63;19.04;97821.72;10044985;29;20045;-85
2022/04/18 12:42:01;;;;;;;2.40;1.17;;;;;;;20.69;19.66;97821.19;10057937;29;20046;-84
2022/04/18 12:47:22;;;;;;;3.22;1.10;;;;;;;20.52;19.85;97811.47;9965790;29;20066;-84
2022/04/18 12:52:51;;;;;;;1.50;0.90;;;;;;;21.24;19.77;97797.16;9953396;29;20450;-84
2022/04/18 12:58:16;;;;;;;2.47;1.30;;;;;;;21.09;19.75;97790.38;9941122;29;20055;-84
2022/04/18 13:03:42;;;;;;;3.13;1.60;;;;;;;21.12;20.01;97792.59;9940666;29;20050;-84
2022/04/18 13:09:06;;;;;;;2.15;0.93;;;;;;;21.10;20.41;97783.31;9967032;29;20066;-84
2022/04/18 13:14:26;;;;;;;3.72;1.02;;;;;;;21.17;20.12;97772.84;9965274;29;20096;-85
2022/04/18 13:19:50;;;;;;;2.03;0.80;;;;;;;20.70;20.02;97769.47;10051853;29;20049;-83
2022/04/18 13:25:12;;;;;;;1.63;0.93;;;;;;;20.30;20.52;97775.38;10038944;29;20413;-85
2022/04/18 13:30:35;;;;;;;1.83;0.57;;;;;;;20.33;21.14;97761.25;10064367;29;20045;-83
2022/04/18 13:41:38;;;;;;;2.25;1.02;;;;;;;20.35;20.71;97747.13;10063773;29;20113;-85
2022/04/18 13:46:59;;;;;;;2.42;0.70;;;;;;;19.62;21.03;97756.97;10050984;29;20080;-83
2022/04/18 13:52:19;;;;;;;2.47;0.73;;;;;;;19.18;21.40;97754.06;10063643;29;20077;-83
2022/04/18 13:57:40;;;;;;;2.03;0.70;;;;;;;18.87;22.16;97747.38;10050375;29;20508;-83
2022/04/18 14:03:01;;;;;;;2.45;1.10;;;;;;;18.95;22.48;97738.47;10063373;29;20057;-83
2022/04/18 14:08:22;;;;;;;1.80;0.90;;;;;;;19.63;21.99;97733.66;10050046;29;20057;-83
2022/04/18 14:13:43;;;;;;;1.17;0.60;;;;;;;19.68;22.02;97723.16;10037277;29;20049;-83
2022/04/18 14:24:43;;;;;;;1.77;0.52;;;;;;;19.33;22.32;97715.66;10051888;29;20065;-84
2022/04/18 14:30:05;;;;;;;1.90;0.80;;;;;;;18.60;22.34;97708.22;10036699;29;20069;-84
2022/04/18 14:35:26;;;;;;;2.53;0.77;;;;;;;18.72;22.64;97713.59;10036399;29;20077;-84
2022/04/18 14:40:47;;;;;;;2.28;0.68;;;;;;;18.78;22.75;97710.97;10049288;29;20487;-84
2022/04/18 14:46:07;;;;;;;2.03;0.73;;;;;;;18.66;22.93;97711.28;10036058;29;20416;-85
2022/04/18 14:51:28;;;;;;;2.00;1.10;;;;;;;18.07;22.90;97699.94;10061624;29;20481;-85
2022/04/18 14:56:48;;;;;;;2.08;0.57;;;;;;;18.05;23.30;97697.75;10035886;29;20068;-83
2022/04/18 15:02:09;;;;;;;2.28;0.68;;;;;;;18.09;23.23;97691.53;10048392;29;20424;-84
2022/04/18 15:07:30;;;;;;;2.05;0.60;;;;;;;17.71;23.29;97688.69;10034954;29;20057;-83
2022/04/18 15:12:51;;;;;;;1.73;0.75;;;;;;;17.23;23.62;97693.81;10060750;29;20062;-84
2022/04/18 15:18:12;;;;;;;2.72;0.80;;;;;;;16.99;24.09;97690.03;10047782;29;20049;-85
2022/04/18 15:23:33;;;;;;;2.38;0.80;;;;;;;16.99;24.30;97687.19;10034801;29;20045;-83
2022/04/18 15:28:53;;;;;;;2.78;0.85;;;;;;;17.07;24.69;97685.41;10034491;29;20056;-84
2022/04/18 15:34:14;;;;;;;2.90;0.98;;;;;;;17.21;24.26;97678.91;10033496;29;20052;-84
2022/04/18 15:39:35;;;;;;;1.75;0.90;;;;;;;17.08;24.13;97672.03;10047057;29;20120;-84
2022/04/18 15:44:58;;;;;;;2.90;0.95;;;;;;;16.76;24.53;97672.16;10034344;29;20497;-86
2022/04/18 15:50:19;;;;;;;1.92;1.20;;;;;;;16.54;24.72;97662.72;10059435;29;20532;-86
2022/04/18 15:55:40;;;;;;;1.63;1.02;;;;;;;16.69;25.11;97669.72;10033276;29;20049;-87
2022/04/18 16:01:02;;;;;;;1.88;0.90;;;;;;;17.05;24.67;97664.88;10046080;29;20041;-87
2022/04/18 16:06:23;;;;;;;2.22;1.00;;;;;;;17.21;24.28;97651.44;10045898;29;20072;-86
2022/04/18 16:11:45;;;;;;;3.92;1.40;;;;;;;16.53;24.44;97662.00;10045648;29;20054;-87
2022/04/18 16:17:06;;;;;;;3.42;1.30;;;;;;;15.96;24.82;97647.53;10033237;29;20046;-83
2022/04/18 16:22:27;;;;;;;2.53;1.20;;;;;;;15.83;25.39;97657.53;10045510;29;20049;-86
2022/04/18 16:28:03;;;;;;;1.98;1.15;;;;;;;15.74;25.77;97647.25;10050912;24;20153;-86
2022/04/18 16:33:43;;;;;;;3.13;1.20;;;;;;;15.53;25.31;97637.09;10047684;29;20118;-86
2022/04/18 16:39:19;;;;;;;3.45;1.13;;;;;;;15.34;25.37;97643.22;10110592;24;20499;-84
2022/04/18 16:50:40;;;;;;;4.18;1.77;;;;;;;15.04;26.01;97636.88;10400997;24;20048;-79
2022/04/18 16:56:00;;;;;;;4.55;1.80;;;;;;;15.01;26.13;97638.88;10089600;29;20120;-79
2022/04/18 17:01:21;;;;;;;3.83;1.60;;;;;;;14.98;26.26;97637.34;10069606;29;20109;-80
2022/04/18 17:06:42;;;;;;;3.20;1.27;;;;;;;14.89;26.44;97630.59;10063092;29;20055;-81
2022/04/18 17:12:05;;;;;;;2.65;1.35;;;;;;;15.01;26.59;97635.34;10056298;29;20054;-80
2022/04/18 17:17:28;;;;;;;3.53;1.30;;;;;;;14.89;26.38;97627.78;10059592;29;20041;-78
2022/04/18 17:22:49;;;;;;;3.20;1.60;;;;;;;14.59;27.11;97634.72;10426627;24;20041;-81
2022/04/18 18:00:13;;;;;;;2.73;1.30;;;;;;;13.17;28.55;97637.03;11769936;23;20055;31
2022/04/18 18:05:34;;;;;;;4.70;1.65;;;;;;;13.00;28.50;97643.06;10301785;24;20276;-82
2022/04/18 18:10:56;;;;;;;5.53;1.58;;;;;;;12.81;28.97;97635.72;10055912;29;20050;-81
2022/04/18 18:16:17;;;;;;;4.10;2.00;;;;;;;12.62;28.85;97636.00;10054617;29;20042;-83
2022/04/18 18:21:39;;;;;;;3.72;1.80;;;;;;;12.52;29.24;97638.22;10054941;29;20065;-81
2022/04/18 18:27:01;;;;;;;3.92;1.83;;;;;;;12.36;29.22;97637.28;10044158;29;20029;-82
2022/04/18 18:32:22;;;;;;;2.70;1.60;;;;;;;12.24;29.97;97646.41;10043233;29;20044;-82
2022/04/18 18:37:44;;;;;;;3.25;1.83;;;;;;;12.20;29.76;97648.97;10054836;29;20524;-83
2022/04/18 18:43:07;;;;;;;3.85;2.05;;;;;;;12.12;30.37;97668.06;10054094;29;20046;-83
2022/04/18 18:48:29;;;;;;;4.38;2.33;;;;;;;12.02;30.16;97661.88;10039251;29;20050;-84
2022/04/18 18:53:51;;;;;;;4.80;2.47;;;;;;;11.92;30.87;97669.66;10050229;29;20054;-84
2022/04/18 18:59:12;;;;;;;4.30;2.47;;;;;;;11.86;30.83;97672.06;10037112;29;20091;-84
2022/04/18 19:04:33;;;;;;;5.15;2.65;;;;;;;11.79;31.03;97673.03;10022043;29;20062;-84
2022/04/18 19:09:55;;;;;;;5.68;3.08;;;;;;;11.67;31.08;97672.97;10035863;29;20054;-82
2022/04/18 19:15:17;;;;;;;5.00;2.58;;;;;;;11.56;31.12;97680.00;10036762;29;20029;-82
2022/04/18 19:26:23;;;;;;;9.88;4.07;;;;;;;11.36;31.96;97671.09;10062279;29;20117;-82
2022/04/18 19:31:44;;;;;;;4.80;2.40;;;;;;;11.31;31.96;97674.97;10044166;29;20046;-80
2022/04/18 19:37:04;;;;;;;5.32;2.40;;;;;;;11.32;31.93;97681.28;10057998;29;20029;-82
2022/04/18 19:42:26;;;;;;;9.00;6.25;;;;;;;11.25;32.13;97685.75;10046980;29;20034;-81
2022/04/18 19:47:50;;;;;;;5.53;2.90;;;;;;;11.16;32.51;97678.19;10060082;29;20034;-83
2022/04/18 19:53:11;;;;;;;4.25;2.33;;;;;;;11.11;32.57;97666.03;10071368;29;20299;-82
2022/04/18 19:58:32;;;;;;;4.95;2.15;;;;;;;11.11;32.57;97670.88;10045888;29;20050;-83
2022/04/18 20:03:54;;;;;;;4.90;2.22;;;;;;;11.08;32.59;97672.78;10045365;29;20113;-83
2022/04/18 20:09:15;;;;;;;4.70;2.40;;;;;;;11.08;32.54;97666.47;10057931;29;20057;-83
2022/04/18 20:14:36;;;;;;;4.40;2.17;;;;;;;11.05;32.40;97653.72;10045313;29;20050;-80
2022/04/18 20:19:57;;;;;;;4.85;1.90;;;;;;;11.01;32.57;97659.06;10036800;29;20116;-80
2022/04/18 20:25:19;;;;;;;4.57;2.28;;;;;;;10.93;32.81;97656.47;10041035;29;20034;-81
2022/04/18 20:30:40;;;;;;;5.30;2.35;;;;;;;10.83;32.75;97658.63;10032798;29;20029;-83
2022/04/18 20:36:01;;;;;;;4.18;2.53;;;;;;;10.69;33.08;97654.88;10048026;29;20030;-81
2022/04/18 20:41:22;;;;;;;5.60;3.20;;;;;;;10.65;32.71;97657.41;10046380;29;20078;-81
2022/04/18 20:46:43;;;;;;;6.63;4.60;;;;;;;10.66;32.70;97650.50;10050641;29;20045;-85
2022/04/18 20:52:04;;;;;;;7.05;2.70;;;;;;;10.60;32.85;97659.94;10040042;29;20034;-80
2022/04/18 21:03:04;;;;;;;4.30;2.42;;;;;;;10.55;33.25;97647.06;10021146;29;20063;-84
2022/04/18 21:08:25;;;;;;;8.20;2.90;;;;;;;10.53;33.20;97651.78;10006469;29;20034;-81
2022/04/18 21:13:46;;;;;;;4.22;2.50;;;;;;;10.56;33.01;97656.88;10006495;29;20044;-82
2022/04/18 21:19:10;;;;;;;3.42;2.20;;;;;;;10.62;32.70;97650.97;10019049;29;20297;-83
2022/04/18 21:24:31;;;;;;;5.95;3.15;;;;;;;10.69;32.70;97643.72;10030253;29;20053;-79
2022/04/18 21:29:52;;;;;;;5.00;2.72;;;;;;;10.69;32.72;97644.44;10033862;29;20026;-82
2022/04/18 21:35:13;;;;;;;4.53;2.60;;;;;;;10.60;33.16;97651.56;10033755;29;20034;-81
2022/04/18 21:40:34;;;;;;;4.78;2.70;;;;;;;10.52;33.29;97656.63;10062254;29;20068;-83
2022/04/18 21:45:54;;;;;;;6.63;3.00;;;;;;;10.50;33.31;97650.88;10028918;29;20022;-82
2022/04/18 21:51:15;;;;;;;6.55;3.05;;;;;;;10.54;33.41;97651.16;10028139;29;20046;-80
2022/04/18 21:56:39;;;;;;;5.15;2.58;;;;;;;10.55;33.21;97641.47;10024531;29;20065;-82
2022/04/18 22:02:00;;;;;;;3.40;2.08;;;;;;;10.57;33.19;97638.06;10024391;29;20059;-82
2022/04/18 22:07:21;;;;;;;5.03;2.30;;;;;;;10.52;33.19;97631.50;10000163;29;20045;-82
2022/04/18 22:12:42;;;;;;;3.75;2.05;;;;;;;10.49;33.31;97632.69;10025323;29;20058;-85
2022/04/18 22:18:04;;;;;;;4.20;2.17;;;;;;;10.42;33.87;97625.25;10024696;29;20063;-84
2022/04/18 22:24:53;;;;;;;4.28;2.20;;;;;;;10.40;34.00;97619.53;10024671;29;20051;-83
2022/04/18 22:29:24;;;;;;;4.47;2.33;;;;;;;10.46;33.76;97611.56;10037497;29;20078;-84
2022/04/18 22:34:45;;;;;;;5.18;3.03;;;;;;;10.51;33.50;97601.38;10037082;29;20050;-84
2022/04/18 22:40:05;;;;;;;6.80;2.92;;;;;;;10.51;33.45;97596.53;10036828;29;20056;-83
2022/04/18 22:45:27;;;;;;;5.53;2.88;;;;;;;10.47;33.38;97587.91;10011186;29;20054;-84
2022/04/18 22:50:48;;;;;;;5.75;3.03;;;;;;;10.46;33.44;97580.13;10011318;29;20053;-85
2022/04/18 22:56:09;;;;;;;5.75;2.97;;;;;;;10.45;33.41;97575.88;10036416;29;20033;-84
2022/04/18 23:01:30;;;;;;;7.43;3.13;;;;;;;10.42;33.54;97569.44;10035999;29;20132;-82
2022/04/18 23:06:52;;;;;;;7.28;3.33;;;;;;;10.40;33.27;97560.94;10035073;29;20106;-85
2022/04/18 23:12:15;;;;;;;5.45;3.10;;;;;;;10.34;33.19;97554.97;10022381;29;20033;-85
2022/04/18 23:17:38;;;;;;;8.50;2.90;;;;;;;10.36;33.31;97551.56;10010169;29;20061;-82
2022/04/18 23:22:59;;;;;;;7.43;3.13;;;;;;;10.31;33.35;97540.13;10022335;29;20047;-84
2022/04/18 23:28:20;;;;;;;7.60;3.30;;;;;;;10.26;33.08;97532.13;10034821;29;20049;-83
2022/04/18 23:33:41;;;;;;;7.35;2.78;;;;;;;10.27;33.31;97528.72;10009415;29;20061;-84
2022/04/18 23:39:01;;;;;;;4.88;2.40;;;;;;;10.28;33.10;97512.72;10021627;29;20038;-82
2022/04/18 23:44:24;;;;;;;4.25;2.42;;;;;;;10.23;33.15;97516.56;10034457;29;20065;-84
2022/04/18 23:49:45;;;;;;;4.97;2.85;;;;;;;10.16;32.93;97511.91;10009514;29;20053;-83
2022/04/18 23:55:06;;;;;;;4.30;2.78;;;;;;;10.11;32.58;97502.53;10033163;29;20097;-84
